createdAt,value
2022-08-20T00:03:28.192Z,14.61
2022-08-20T00:13:28.174Z,14.47
2022-08-20T00:23:28.159Z,14.43
2022-08-20T00:33:28.148Z,14.26
2022-08-20T00:43:28.159Z,13.98
2022-08-20T00:53:28.136Z,13.99
2022-08-20T01:03:28.183Z,13.93
2022-08-20T01:13:28.116Z,13.84
2022-08-20T01:23:28.106Z,13.8
2022-08-20T01:33:28.110Z,13.65
2022-08-20T01:43:28.103Z,13.51
2022-08-20T01:53:28.255Z,13.56
2022-08-20T02:03:28.084Z,13.4
2022-08-20T02:13:28.075Z,13.4
2022-08-20T02:23:28.044Z,13.38
2022-08-20T02:33:28.074Z,13.23
2022-08-20T02:43:28.049Z,13.21
2022-08-20T02:53:28.051Z,13.3
2022-08-20T03:03:28.035Z,13.22
2022-08-20T03:13:28.071Z,12.98
2022-08-20T03:23:28.029Z,12.76
2022-08-20T03:33:28.027Z,12.8
2022-08-20T03:43:28.011Z,12.94
2022-08-20T03:53:28.073Z,12.9
2022-08-20T04:03:27.988Z,12.87
2022-08-20T04:13:28.045Z,12.98
2022-08-20T04:23:27.980Z,13.02
2022-08-20T04:33:33.314Z,13.03
2022-08-20T04:43:27.999Z,13.15
2022-08-20T04:53:27.975Z,13.3
2022-08-20T05:03:27.956Z,13.43
2022-08-20T05:13:27.933Z,13.61
2022-08-20T05:23:27.942Z,13.94
2022-08-20T05:33:27.935Z,14.15
2022-08-20T05:43:27.908Z,14.55
2022-08-20T05:53:27.908Z,15.12
2022-08-20T06:03:27.895Z,15.59
2022-08-20T06:13:27.944Z,16.14
2022-08-20T06:23:27.874Z,17.83
2022-08-20T06:33:27.879Z,18.45
2022-08-20T06:43:27.871Z,17.32
2022-08-20T06:53:27.865Z,16.75
2022-08-20T07:03:27.846Z,16.87
2022-08-20T07:13:27.844Z,16.94
2022-08-20T07:23:27.833Z,16.83
2022-08-20T07:33:28.235Z,16.82
2022-08-20T07:43:27.812Z,16.89
2022-08-20T07:53:30.184Z,16.86
2022-08-20T08:03:37.532Z,16.87
2022-08-20T08:13:27.819Z,16.93
2022-08-20T08:23:27.777Z,17.05
2022-08-20T08:33:27.763Z,17.09
2022-08-20T08:43:27.870Z,17.11
2022-08-20T08:53:27.728Z,17.44
2022-08-20T09:03:27.743Z,17.67
2022-08-20T09:13:27.740Z,17.68
2022-08-20T09:23:27.744Z,17.61
2022-08-20T09:33:27.693Z,17.73
2022-08-20T09:43:27.698Z,18.04
2022-08-20T09:53:27.699Z,18.38
2022-08-20T10:03:27.691Z,18.68
2022-08-20T10:13:27.700Z,18.74
2022-08-20T10:23:27.668Z,18.87
2022-08-20T10:33:27.643Z,19.29
2022-08-20T10:43:27.640Z,19.52
2022-08-20T10:53:27.625Z,19.82
2022-08-20T11:03:27.660Z,20.25
2022-08-20T11:13:27.606Z,20.79
2022-08-20T11:23:27.614Z,21.17
2022-08-20T11:33:27.595Z,21.34
2022-08-20T11:43:27.569Z,22.35
2022-08-20T11:53:27.548Z,22.37
2022-08-20T12:03:27.541Z,22.51
2022-08-20T12:13:31.094Z,22.8
2022-08-20T12:23:27.529Z,23.29
2022-08-20T12:33:27.509Z,23.93
2022-08-20T12:43:27.512Z,23.83
2022-08-20T12:53:27.496Z,23.46
2022-08-20T13:03:27.497Z,23.06
2022-08-20T13:13:27.497Z,22.66
2022-08-20T13:23:27.453Z,22.66
2022-08-20T13:33:27.452Z,22.82
2022-08-20T13:43:27.435Z,22.44
2022-08-20T13:53:27.453Z,22.47
2022-08-20T14:03:27.442Z,22.44
2022-08-20T14:13:27.393Z,22.18
2022-08-20T14:23:27.383Z,22
2022-08-20T14:33:27.389Z,21.83
2022-08-20T14:43:27.370Z,21.67
2022-08-20T14:53:27.366Z,21.57
2022-08-20T15:03:27.348Z,21.35
2022-08-20T15:13:27.348Z,21.19
2022-08-20T15:23:27.311Z,21.09
2022-08-20T15:33:27.389Z,21.05
2022-08-20T15:43:27.328Z,20.91
2022-08-20T15:53:27.308Z,20.89
2022-08-20T16:03:27.290Z,20.84
2022-08-20T16:13:27.264Z,20.85
2022-08-20T16:23:27.263Z,20.79
2022-08-20T16:33:27.247Z,20.69
2022-08-20T16:43:27.278Z,20.46
2022-08-20T16:53:27.523Z,20.33
2022-08-20T17:03:31.284Z,20.19
2022-08-20T17:13:28.070Z,20.07
2022-08-20T17:23:27.196Z,19.9
2022-08-20T17:33:27.350Z,19.59
2022-08-20T17:43:27.200Z,19.33
2022-08-20T17:53:27.221Z,19.12
2022-08-20T18:03:27.165Z,18.83
2022-08-20T18:13:27.154Z,18.5
2022-08-20T18:23:27.161Z,18.38
2022-08-20T18:33:27.153Z,18.25
2022-08-20T18:43:27.100Z,18.2
2022-08-20T18:53:29.197Z,17.92
2022-08-20T19:03:27.092Z,17.77
2022-08-20T19:13:27.098Z,17.7
2022-08-20T19:23:27.095Z,17.62
2022-08-20T19:33:27.083Z,17.59
2022-08-20T19:43:27.349Z,17.44
2022-08-20T19:53:30.205Z,17.24
2022-08-20T20:03:27.073Z,17.18
2022-08-20T20:13:27.049Z,17.12
2022-08-20T20:23:27.013Z,17.03
2022-08-20T20:33:27.008Z,16.92
2022-08-20T20:43:27.025Z,16.9
2022-08-20T20:53:29.310Z,16.77
2022-08-20T21:03:26.993Z,16.73
2022-08-20T21:13:26.976Z,16.63
2022-08-20T21:23:39.657Z,16.6
2022-08-20T21:33:26.970Z,16.56
2022-08-20T21:43:26.960Z,16.46
2022-08-20T21:53:26.949Z,16.33
2022-08-20T22:03:26.964Z,16.28
2022-08-20T22:13:26.925Z,16.3
2022-08-20T22:23:26.914Z,16.28
2022-08-20T22:33:26.906Z,16.16
2022-08-20T22:43:26.896Z,16.06
2022-08-20T22:53:26.922Z,16
2022-08-20T23:03:29.242Z,15.95
2022-08-20T23:13:26.856Z,15.75
2022-08-20T23:23:26.858Z,15.61
2022-08-20T23:33:26.963Z,15.63
2022-08-20T23:43:26.866Z,15.58
2022-08-20T23:53:26.876Z,15.39
